This is the latest recevied weather packets stored in our database for station/object HA9OZD-21. If no packets are shown the sender has not sent any weather packets the latest 10 day(s).
| Time | Temp. | Humidity | Pressure | Rain* | Wind** | Luminosity | Snow |
|---|---|---|---|---|---|---|---|
| 1777608094 | 3.89° C | 42% | 1023.8 hPa | - | - | - | - |
| 1777604494 | 3.89° C | 42% | 1023.9 hPa | - | - | - | - |
| 1777600894 | 3.89° C | 45% | 1024 hPa | - | - | - | - |
| 1777597294 | 4.44° C | 48% | 1024 hPa | - | - | - | - |
| 1777593694 | 4.44° C | 51% | 1024 hPa | - | - | - | - |
| 1777590097 | 5° C | 53% | 1024.2 hPa | - | - | - | - |
| 1777586497 | 5° C | 54% | 1024.2 hPa | - | - | - | - |
| 1777582897 | 5° C | 52% | 1024 hPa | - | - | - | - |
| 1777579296 | 5° C | 51% | 1024 hPa | - | - | - | - |
| 1777575696 | 5° C | 50% | 1023.9 hPa | - | - | - | - |
| 1777572096 | 5.56° C | 45% | 1023.5 hPa | - | - | - | - |
| 1777568496 | 6.67° C | 42% | 1023.1 hPa | - | - | - | - |
| 1777564896 | 7.22° C | 40% | 1022.9 hPa | - | - | - | - |
| 1777561296 | 7.78° C | 39% | 1023 hPa | - | - | - | - |
| 1777557696 | 7.78° C | 39% | 1023.2 hPa | - | - | - | - |
| 1777554096 | 7.78° C | 41% | 1023.8 hPa | - | - | - | - |
| 1777550495 | 7.22° C | 41% | 1024.2 hPa | - | - | - | - |
| 1777546895 | 6.67° C | 44% | 1024.4 hPa | - | - | - | - |
| 1777543295 | 6.11° C | 46% | 1024.8 hPa | - | - | - | - |
| 1777539695 | 5.56° C | 50% | 1024.9 hPa | - | - | - | - |
| 1777536095 | 5° C | 55% | 1024.9 hPa | - | - | - | - |
| 1777532495 | 3.89° C | 70% | 1024.6 hPa | - | - | - | - |
| 1777528894 | 1.67° C | 87% | 1024.3 hPa | - | - | - | - |
| 1777525294 | 0.56° C | 97% | 1024.1 hPa | - | - | - | - |
| 1777521694 | -1.11° C | 100% | 1023.6 hPa | - | - | - | - |
* Rain since midnight (hover to see other rain measurements)
** Current wind speed in m/s (hover to see current wind gust speed)